Time;durP1;ratioP1;P1;durP2;ratioP2;P2;SDS_P1;SDS_P2;PMS_P1;PMS_P2;Temp;Humidity;BMP_temperature;BMP_pressure;BME280_temperature;BME280_humidity;BME280_pressure;Samples;Min_cycle;Max_cycle;Signal;HPM_P1;HPM_P2
2024/03/09 00:00:32;;;;;;;24.95;14.18;;;4.40;99.90;;;;;;5054233;28;20625;-67
2024/03/09 00:03:01;;;;;;;27.48;14.00;;;4.40;99.90;;;;;;5053909;28;20041;-67
2024/03/09 00:05:28;;;;;;;26.10;14.82;;;4.40;99.90;;;;;;5054216;28;20041;-67
2024/03/09 00:07:55;;;;;;;31.52;16.60;;;4.40;99.90;;;;;;5054106;28;20428;-67
2024/03/09 00:10:28;;;;;;;32.05;16.95;;;4.40;99.90;;;;;;5052635;28;20044;-67
2024/03/09 00:12:55;;;;;;;29.73;16.38;;;4.40;99.90;;;;;;5053780;28;20040;-67
2024/03/09 00:15:23;;;;;;;27.45;15.07;;;4.30;99.90;;;;;;5053789;28;20091;-67
2024/03/09 00:17:51;;;;;;;27.50;15.60;;;4.40;99.90;;;;;;5054107;28;20045;-67
2024/03/09 00:20:21;;;;;;;29.02;14.90;;;4.40;99.90;;;;;;5053687;28;20073;-67
2024/03/09 00:22:47;;;;;;;28.00;15.50;;;4.30;99.90;;;;;;5053364;28;20045;-67
2024/03/09 00:25:14;;;;;;;30.13;16.17;;;4.30;99.90;;;;;;5054002;28;20052;-67
2024/03/09 00:27:39;;;;;;;31.20;16.98;;;4.30;99.90;;;;;;5053829;28;20094;-67
2024/03/09 00:30:13;;;;;;;25.95;14.68;;;4.30;99.90;;;;;;5053611;28;20040;-67
2024/03/09 00:32:39;;;;;;;;;;;4.20;99.90;;;;;;5053785;28;20501;-67
2024/03/09 00:35:07;;;;;;;26.60;15.05;;;4.20;99.90;;;;;;5053542;28;19916;-67
2024/03/09 00:37:33;;;;;;;24.63;14.23;;;4.20;99.90;;;;;;5053822;28;20048;-67
2024/03/09 00:39:59;;;;;;;27.30;13.70;;;4.20;99.90;;;;;;5053497;28;20045;-67
2024/03/09 00:42:25;;;;;;;28.08;16.50;;;4.10;99.90;;;;;;5053152;28;20045;-67
2024/03/09 00:44:51;;;;;;;26.20;14.38;;;4.10;99.90;;;;;;5053611;28;20045;-67
2024/03/09 00:47:17;;;;;;;27.98;14.95;;;4.10;99.90;;;;;;5053496;28;20048;-67
2024/03/09 00:49:43;;;;;;;29.83;14.18;;;4.00;99.90;;;;;;5052801;28;20033;-68
2024/03/09 00:52:10;;;;;;;25.90;14.93;;;4.00;99.90;;;;;;5044770;28;20041;-68
2024/03/09 00:54:37;;;;;;;25.85;13.88;;;4.00;99.90;;;;;;5053531;28;20032;-67
2024/03/09 00:57:06;;;;;;;24.58;13.77;;;4.00;99.90;;;;;;5053408;28;20049;-67
2024/03/09 00:59:32;;;;;;;25.27;14.80;;;4.00;99.90;;;;;;5052939;28;20045;-67
2024/03/09 01:02:00;;;;;;;30.67;14.23;;;4.00;99.90;;;;;;5052777;28;20048;-67
2024/03/09 01:04:25;;;;;;;25.85;14.15;;;3.90;99.90;;;;;;5053034;28;20041;-67
2024/03/09 01:06:54;;;;;;;25.95;14.35;;;3.90;99.90;;;;;;5052958;28;20163;-67
2024/03/09 01:09:20;;;;;;;31.02;15.43;;;3.80;99.90;;;;;;5052971;28;20041;-67
2024/03/09 01:11:48;;;;;;;26.50;15.68;;;3.90;99.90;;;;;;5052787;28;20044;-67
2024/03/09 01:14:14;;;;;;;30.17;15.30;;;3.80;99.90;;;;;;5053124;28;20106;-66
2024/03/09 01:16:40;;;;;;;25.48;13.75;;;3.80;99.90;;;;;;5052962;28;20044;-66
2024/03/09 01:19:06;;;;;;;24.98;13.40;;;3.80;99.90;;;;;;5052599;28;20492;-66
2024/03/09 01:21:33;;;;;;;25.90;14.20;;;3.80;99.90;;;;;;5052640;28;20083;-66
2024/03/09 01:24:02;;;;;;;32.60;15.10;;;3.80;99.90;;;;;;5053036;28;20045;-66
2024/03/09 01:26:27;;;;;;;26.63;14.10;;;3.80;99.90;;;;;;5053006;28;20041;-66
2024/03/09 01:28:54;;;;;;;27.80;14.82;;;3.70;99.90;;;;;;5051886;28;20111;-67
2024/03/09 01:31:27;;;;;;;25.55;13.45;;;3.70;99.90;;;;;;5052204;28;20041;-66
2024/03/09 01:33:56;;;;;;;;;;;3.80;99.90;;;;;;5052079;28;20041;-66
2024/03/09 01:36:24;;;;;;;25.15;13.57;;;3.70;99.90;;;;;;5052641;28;19916;-66
2024/03/09 01:38:50;;;;;;;28.77;14.02;;;3.70;99.90;;;;;;5051164;28;20055;-66
2024/03/09 01:41:15;;;;;;;26.42;14.07;;;3.70;99.90;;;;;;5051960;28;20040;-66
2024/03/09 01:43:41;;;;;;;27.58;14.32;;;3.60;99.90;;;;;;5052418;28;20044;-67
2024/03/09 01:46:10;;;;;;;25.40;14.40;;;3.60;99.90;;;;;;5052346;28;20087;-66
2024/03/09 01:48:39;;;;;;;27.48;15.15;;;3.60;99.90;;;;;;5052143;28;20033;-67
2024/03/09 01:51:05;;;;;;;27.00;15.02;;;3.60;99.90;;;;;;5050949;28;20124;-66
2024/03/09 01:53:32;;;;;;;27.45;14.73;;;3.50;99.90;;;;;;5052380;28;20044;-66
2024/03/09 01:55:59;;;;;;;24.58;14.35;;;3.50;99.90;;;;;;5051077;28;20077;-66
2024/03/09 01:58:27;;;;;;;29.02;14.85;;;3.50;99.90;;;;;;5051765;28;20377;-66
2024/03/09 02:00:58;;;;;;;25.35;14.40;;;3.50;99.90;;;;;;5052136;28;20045;-66
2024/03/09 02:03:24;;;;;;;26.30;14.10;;;3.50;99.90;;;;;;5051708;28;20037;-66
2024/03/09 02:05:50;;;;;;;26.15;15.13;;;3.50;99.90;;;;;;5052057;28;20106;-67
2024/03/09 02:08:20;;;;;;;24.70;14.88;;;3.50;99.90;;;;;;5050293;28;20459;-66
2024/03/09 02:10:47;;;;;;;25.45;14.50;;;3.40;99.90;;;;;;5051446;28;20037;-66
2024/03/09 02:13:13;;;;;;;28.67;15.30;;;3.40;99.90;;;;;;5051251;28;20049;-66
2024/03/09 02:15:44;;;;;;;29.08;15.63;;;3.40;99.90;;;;;;5051982;28;20385;-66
2024/03/09 02:18:10;;;;;;;28.85;14.40;;;3.40;99.90;;;;;;5051983;28;20048;-66
2024/03/09 02:20:37;;;;;;;26.63;15.45;;;3.40;99.90;;;;;;5051406;28;20527;-67
2024/03/09 02:23:04;;;;;;;32.35;16.60;;;3.40;99.90;;;;;;5051308;28;20083;-67
2024/03/09 02:25:29;;;;;;;28.83;15.90;;;3.30;99.90;;;;;;5050217;28;20057;-67
2024/03/09 02:27:55;;;;;;;26.35;15.35;;;3.40;99.90;;;;;;5051808;28;20134;-66
2024/03/09 02:30:21;;;;;;;28.65;16.02;;;3.40;99.90;;;;;;5051431;28;20044;-66
2024/03/09 02:32:50;;;;;;;27.83;15.38;;;3.30;99.90;;;;;;5051283;28;20025;-66
2024/03/09 02:35:17;;;;;;;28.52;14.98;;;3.30;99.90;;;;;;5050215;28;20041;-66
2024/03/09 02:37:43;;;;;;;28.38;15.13;;;3.30;99.90;;;;;;5051602;28;20175;-66
2024/03/09 02:40:12;;;;;;;27.48;15.60;;;3.30;99.90;;;;;;5051027;28;20044;-66
2024/03/09 02:42:39;;;;;;;28.70;14.00;;;3.30;99.90;;;;;;5050996;28;20033;-66
2024/03/09 02:45:06;;;;;;;28.10;15.15;;;3.30;99.90;;;;;;5051623;28;20041;-66
2024/03/09 02:47:31;;;;;;;28.98;15.52;;;3.40;99.90;;;;;;5051505;28;20041;-66
2024/03/09 02:49:57;;;;;;;29.42;17.10;;;3.30;99.90;;;;;;5051156;28;20037;-66
2024/03/09 02:52:23;;;;;;;28.70;16.25;;;3.30;99.90;;;;;;5049890;28;20142;-66
2024/03/09 02:54:50;;;;;;;29.33;15.48;;;3.20;99.90;;;;;;5051201;28;20029;-67
2024/03/09 02:57:16;;;;;;;31.98;16.58;;;3.20;99.90;;;;;;5051453;28;20045;-67
2024/03/09 02:59:43;;;;;;;33.70;16.23;;;3.20;99.90;;;;;;5051123;28;20060;-66
2024/03/09 03:04:54;;;;;;;26.85;16.65;;;3.20;99.90;;;;;;5051288;28;20053;-66
2024/03/09 03:07:19;;;;;;;25.02;15.00;;;3.20;99.90;;;;;;5051041;28;20041;-66
2024/03/09 03:09:50;;;;;;;32.67;17.45;;;3.20;99.90;;;;;;5050916;28;20475;-66
2024/03/09 03:12:16;;;;;;;29.92;16.83;;;3.10;99.90;;;;;;5050844;28;20040;-66
2024/03/09 03:14:43;;;;;;;32.03;16.35;;;3.10;99.90;;;;;;5051114;28;20389;-67
2024/03/09 03:17:12;;;;;;;34.22;17.67;;;3.10;99.90;;;;;;5051216;28;20398;-67
2024/03/09 03:19:38;;;;;;;33.65;17.17;;;3.20;99.90;;;;;;5050777;28;20041;-67
2024/03/09 03:22:05;;;;;;;26.38;15.68;;;3.10;99.90;;;;;;5050491;28;20767;-67
2024/03/09 03:24:31;;;;;;;33.28;18.30;;;3.10;99.90;;;;;;5051231;28;20068;-69
2024/03/09 03:26:57;;;;;;;31.05;17.08;;;3.00;99.90;;;;;;5051113;28;20045;-67
2024/03/09 03:29:27;;;;;;;31.65;17.83;;;3.10;99.90;;;;;;5050917;28;20099;-67
2024/03/09 03:31:56;;;;;;;29.23;15.90;;;3.00;99.90;;;;;;5050501;28;20544;-67
2024/03/09 03:34:22;;;;;;;31.52;18.10;;;3.00;99.90;;;;;;5051004;28;20037;-67
2024/03/09 03:36:48;;;;;;;33.97;18.67;;;3.00;99.90;;;;;;5051252;28;20040;-66
2024/03/09 03:39:14;;;;;;;32.08;18.08;;;3.00;99.90;;;;;;5050750;28;20037;-67
2024/03/09 03:41:39;;;;;;;30.42;17.70;;;3.00;99.90;;;;;;5036464;28;20034;-67
2024/03/09 03:44:05;;;;;;;32.15;17.67;;;3.00;99.90;;;;;;5031087;28;20048;-67
2024/03/09 03:46:31;;;;;;;36.50;17.35;;;3.00;99.90;;;;;;5031103;28;20052;-67
2024/03/09 03:48:57;;;;;;;34.17;18.02;;;2.90;99.90;;;;;;5030571;28;20068;-67
2024/03/09 03:51:22;;;;;;;37.33;18.05;;;3.00;99.90;;;;;;5032621;28;20061;-67
2024/03/09 03:53:48;;;;;;;32.03;17.98;;;2.90;99.90;;;;;;5034789;28;20041;-67
2024/03/09 03:56:14;;;;;;;30.48;16.55;;;2.80;99.90;;;;;;5034694;28;20147;-67
2024/03/09 03:58:44;;;;;;;35.22;20.40;;;2.80;99.90;;;;;;5034403;28;20037;-67
2024/03/09 04:01:10;;;;;;;30.15;17.25;;;2.90;99.90;;;;;;5034043;28;20045;-67
2024/03/09 04:03:37;;;;;;;29.00;17.20;;;2.80;99.90;;;;;;5034263;28;20088;-67
2024/03/09 04:06:04;;;;;;;32.53;17.30;;;2.90;99.90;;;;;;5033020;28;20116;-67
2024/03/09 04:08:30;;;;;;;34.88;18.33;;;2.80;99.90;;;;;;5033988;28;20053;-67
2024/03/09 04:10:56;;;;;;;35.60;18.70;;;2.80;99.90;;;;;;5034146;28;20033;-67
2024/03/09 04:13:23;;;;;;;30.42;16.85;;;2.80;99.90;;;;;;5033806;28;20407;-67
2024/03/09 04:15:51;;;;;;;35.38;18.00;;;2.80;99.90;;;;;;5034212;28;20053;-67
2024/03/09 04:18:18;;;;;;;31.52;18.15;;;2.80;99.90;;;;;;5034085;28;20084;-67
2024/03/09 04:20:43;;;;;;;31.33;16.98;;;2.80;99.90;;;;;;5033977;28;20064;-67
2024/03/09 04:23:18;;;;;;;31.45;16.95;;;2.70;99.90;;;;;;5033752;28;20615;-67
2024/03/09 04:25:48;;;;;;;38.22;18.45;;;2.60;99.90;;;;;;5034019;28;20124;-67
2024/03/09 04:28:20;;;;;;;35.00;18.30;;;2.70;99.90;;;;;;5033959;28;20049;-67
2024/03/09 04:30:50;;;;;;;38.72;18.95;;;2.60;99.90;;;;;;5033444;28;20041;-67
2024/03/09 04:33:17;;;;;;;35.88;19.65;;;2.60;99.90;;;;;;5033371;28;20500;-67
2024/03/09 04:35:43;;;;;;;38.03;18.83;;;2.60;99.90;;;;;;5033970;28;20029;-67
2024/03/09 04:38:10;;;;;;;41.17;18.65;;;2.60;99.90;;;;;;5033793;28;20047;-67
2024/03/09 04:40:36;;;;;;;36.30;18.95;;;2.60;99.90;;;;;;5033415;28;20065;-67
2024/03/09 04:43:05;;;;;;;43.13;20.23;;;2.60;99.90;;;;;;5033101;28;20052;-67
2024/03/09 04:45:33;;;;;;;35.28;19.50;;;2.60;99.90;;;;;;5033769;28;20068;-67
2024/03/09 04:47:59;;;;;;;34.08;19.13;;;2.60;99.90;;;;;;5032249;28;20056;-67
2024/03/09 04:50:28;;;;;;;37.85;19.27;;;2.50;99.90;;;;;;5033360;28;20029;-67
2024/03/09 04:52:58;;;;;;;34.72;17.70;;;2.60;99.90;;;;;;5033052;28;20048;-67
2024/03/09 04:55:27;;;;;;;33.38;18.60;;;2.50;99.90;;;;;;5033323;28;20038;-67
2024/03/09 04:57:57;;;;;;;38.25;19.77;;;2.50;99.90;;;;;;5033328;28;20456;-67
2024/03/09 05:00:26;;;;;;;40.20;20.83;;;2.50;99.90;;;;;;5033156;28;20413;-67
2024/03/09 05:02:52;;;;;;;37.05;19.00;;;2.50;99.90;;;;;;5031818;28;20045;-67
2024/03/09 05:05:19;;;;;;;41.00;21.20;;;2.50;99.90;;;;;;5033275;28;20080;-67
2024/03/09 05:07:46;;;;;;;38.28;19.42;;;2.40;99.90;;;;;;5033146;28;20049;-67
2024/03/09 05:10:17;;;;;;;34.67;20.63;;;2.40;99.90;;;;;;5032741;28;20044;-66
2024/03/09 05:12:56;;;;;;;39.30;20.20;;;2.40;99.90;;;;;;5031701;28;20042;-66
2024/03/09 05:15:29;;;;;;;36.38;20.55;;;2.30;99.90;;;;;;5033184;28;20038;-66
2024/03/09 05:17:55;;;;;;;35.13;18.92;;;2.30;99.90;;;;;;5033262;28;20049;-66
2024/03/09 05:20:22;;;;;;;35.45;19.00;;;2.30;99.90;;;;;;5032562;28;20041;-66
2024/03/09 05:22:57;;;;;;;40.22;20.55;;;2.20;99.90;;;;;;5032327;28;20079;-66
2024/03/09 05:25:23;;;;;;;34.47;19.30;;;2.30;99.90;;;;;;5033010;28;20080;-66
2024/03/09 05:27:53;;;;;;;38.90;21.67;;;2.30;99.90;;;;;;5032859;28;20041;-67
2024/03/09 05:30:24;;;;;;;33.67;20.10;;;2.30;99.90;;;;;;5032871;28;20178;-66
2024/03/09 05:32:53;;;;;;;41.13;20.38;;;2.30;99.90;;;;;;5032337;28;20065;-66
2024/03/09 05:35:20;;;;;;;37.53;19.92;;;2.30;99.90;;;;;;5032460;28;20425;-66
2024/03/09 05:37:46;;;;;;;37.83;19.27;;;2.30;99.90;;;;;;5032783;28;20047;-66
2024/03/09 05:40:13;;;;;;;39.92;20.60;;;2.30;99.90;;;;;;5032374;28;20037;-66
2024/03/09 05:42:42;;;;;;;40.78;22.42;;;2.30;99.90;;;;;;5032227;28;20049;-66
2024/03/09 05:45:15;;;;;;;41.90;20.38;;;2.20;99.90;;;;;;5032496;28;20052;-66
2024/03/09 05:47:45;;;;;;;43.30;22.17;;;2.20;99.90;;;;;;5032357;28;20048;-66
2024/03/09 05:50:11;;;;;;;43.58;21.88;;;2.30;99.90;;;;;;5031014;28;20112;-66
2024/03/09 05:52:37;;;;;;;43.08;21.35;;;2.30;99.90;;;;;;5031874;28;20076;-66
2024/03/09 05:55:03;;;;;;;42.63;21.98;;;2.20;99.90;;;;;;5032335;28;20041;-66
2024/03/09 05:57:28;;;;;;;41.08;20.90;;;2.20;99.90;;;;;;5032052;28;20115;-67
2024/03/09 05:59:54;;;;;;;43.17;21.65;;;2.20;99.90;;;;;;5031707;28;20532;-66
2024/03/09 06:02:20;;;;;;;40.60;21.10;;;2.20;99.90;;;;;;5031444;28;20358;-66
2024/03/09 06:04:45;;;;;;;42.20;23.20;;;2.20;99.90;;;;;;5031890;28;20452;-66
2024/03/09 06:07:11;;;;;;;44.63;23.45;;;2.10;99.90;;;;;;5032101;28;20038;-66
2024/03/09 06:09:37;;;;;;;40.20;21.20;;;2.20;99.90;;;;;;5031582;28;20069;-66
2024/03/09 06:12:02;;;;;;;42.97;23.85;;;2.10;99.90;;;;;;5031562;28;20030;-66
2024/03/09 06:14:28;;;;;;;42.17;22.50;;;2.10;99.90;;;;;;5030337;28;20046;-66
2024/03/09 06:16:54;;;;;;;42.65;22.73;;;2.10;99.90;;;;;;5031736;28;20048;-66
2024/03/09 06:19:19;;;;;;;41.50;22.63;;;2.10;99.90;;;;;;5031763;28;20038;-66
2024/03/09 06:21:45;;;;;;;42.80;22.35;;;2.10;99.90;;;;;;5031482;28;20048;-66
2024/03/09 06:24:11;;;;;;;43.45;23.23;;;2.10;99.90;;;;;;5014146;28;20474;-66
2024/03/09 06:26:36;;;;;;;42.45;22.48;;;2.20;99.90;;;;;;5031883;28;20090;-66
2024/03/09 06:29:02;;;;;;;49.92;25.00;;;2.20;99.90;;;;;;5030187;28;20049;-66
2024/03/09 06:31:28;;;;;;;46.47;23.35;;;2.20;99.90;;;;;;5031266;28;20044;-66
2024/03/09 06:33:54;;;;;;;45.45;23.63;;;2.30;99.90;;;;;;5031797;28;20037;-67
2024/03/09 06:36:19;;;;;;;46.22;24.10;;;2.20;99.90;;;;;;5031825;28;20025;-66
2024/03/09 06:38:45;;;;;;;45.05;23.27;;;2.20;99.90;;;;;;5031492;28;20072;-66
2024/03/09 06:41:10;;;;;;;44.70;23.05;;;2.20;99.90;;;;;;5031202;28;20072;-66
2024/03/09 06:43:36;;;;;;;45.08;23.65;;;2.20;99.90;;;;;;5031587;28;20404;-66
2024/03/09 06:46:03;;;;;;;46.53;24.83;;;2.30;99.90;;;;;;5031418;28;20095;-65
2024/03/09 06:48:29;;;;;;;48.83;24.60;;;2.40;99.90;;;;;;5031066;28;20045;-66
2024/03/09 06:50:55;;;;;;;49.55;24.17;;;2.40;99.90;;;;;;5031582;28;20048;-66
2024/03/09 06:53:25;;;;;;;43.78;23.88;;;2.40;99.90;;;;;;5031129;28;20061;-66
2024/03/09 06:55:51;;;;;;;44.17;25.25;;;2.50;99.90;;;;;;5031480;28;20033;-66
2024/03/09 06:58:17;;;;;;;45.70;23.45;;;2.50;99.90;;;;;;5031433;28;20382;-66
2024/03/09 07:00:43;;;;;;;46.25;24.15;;;2.60;99.90;;;;;;5029706;28;20076;-66
2024/03/09 07:03:09;;;;;;;45.53;23.70;;;2.80;99.90;;;;;;5031066;28;20409;-66
2024/03/09 07:05:35;;;;;;;44.45;23.20;;;2.80;99.90;;;;;;5031377;28;20044;-66
2024/03/09 07:08:01;;;;;;;47.75;24.55;;;2.90;99.90;;;;;;5029664;28;20042;-66
2024/03/09 07:10:28;;;;;;;43.92;23.60;;;3.10;99.90;;;;;;5029627;28;20033;-66
2024/03/09 07:12:54;;;;;;;49.30;24.27;;;3.20;99.90;;;;;;5030916;28;20041;-66
2024/03/09 07:15:22;;;;;;;38.80;21.70;;;3.20;99.90;;;;;;5031259;28;20037;-66
2024/03/09 07:17:54;;;;;;;43.85;23.80;;;3.40;99.90;;;;;;5031275;28;20120;-66
2024/03/09 07:20:23;;;;;;;43.88;24.27;;;3.50;99.90;;;;;;5031101;28;20092;-66
2024/03/09 07:22:50;;;;;;;44.83;24.52;;;3.50;99.90;;;;;;5030811;28;20111;-67
2024/03/09 07:25:25;;;;;;;50.05;24.50;;;3.70;99.90;;;;;;5031352;28;20517;-66
2024/03/09 07:27:51;;;;;;;46.17;23.88;;;3.80;99.90;;;;;;5034946;28;20075;-66
2024/03/09 07:30:18;;;;;;;43.22;24.15;;;3.80;99.90;;;;;;5034618;28;20120;-66
2024/03/09 07:32:44;;;;;;;42.45;24.02;;;3.90;99.90;;;;;;5034668;28;20136;-67
2024/03/09 07:35:14;;;;;;;46.30;25.13;;;4.00;99.90;;;;;;5033848;28;20039;-67
2024/03/09 07:37:48;;;;;;;43.08;22.95;;;4.00;99.90;;;;;;5034856;28;20088;-67
2024/03/09 07:40:18;;;;;;;45.25;23.52;;;4.10;99.90;;;;;;5034379;28;20060;-67
2024/03/09 07:42:44;;;;;;;51.20;25.80;;;4.20;99.90;;;;;;5034548;28;20088;-66
2024/03/09 07:45:11;;;;;;;46.58;27.17;;;4.20;99.90;;;;;;5034835;28;20069;-67
2024/03/09 07:47:39;;;;;;;49.30;24.85;;;4.40;99.90;;;;;;5034718;28;20117;-67
2024/03/09 07:50:09;;;;;;;46.40;25.55;;;4.40;99.90;;;;;;5033367;28;20038;-67
2024/03/09 07:52:34;;;;;;;44.40;25.13;;;4.50;99.90;;;;;;5034121;28;20124;-67
2024/03/09 07:55:00;;;;;;;47.88;24.48;;;4.60;99.90;;;;;;5034436;28;20084;-67
2024/03/09 07:57:25;;;;;;;42.83;23.52;;;4.70;99.90;;;;;;5034756;28;20095;-67
2024/03/09 07:59:51;;;;;;;49.78;25.30;;;4.70;99.90;;;;;;5034337;28;20045;-66
2024/03/09 08:02:17;;;;;;;46.10;24.80;;;4.90;99.90;;;;;;5034018;28;20047;-67
2024/03/09 08:04:43;;;;;;;41.22;24.02;;;5.00;99.90;;;;;;5034458;28;20437;-67
2024/03/09 08:07:08;;;;;;;44.10;23.95;;;5.10;99.90;;;;;;5034340;28;20034;-67
2024/03/09 08:09:34;;;;;;;42.95;23.55;;;5.20;99.90;;;;;;5034065;28;20515;-67
2024/03/09 08:12:00;;;;;;;44.03;24.23;;;5.30;99.90;;;;;;5033986;28;20037;-67
2024/03/09 08:14:28;;;;;;;44.17;24.98;;;5.30;99.90;;;;;;5034396;28;20077;-66
2024/03/09 08:16:55;;;;;;;44.30;24.65;;;5.40;99.90;;;;;;5034258;28;20046;-67
2024/03/09 08:19:21;;;;;;;43.88;23.67;;;5.40;99.90;;;;;;5051896;28;20402;-67
2024/03/09 08:21:47;;;;;;;41.40;23.17;;;5.50;99.90;;;;;;5052919;28;20036;-67
2024/03/09 08:24:13;;;;;;;45.88;25.38;;;5.50;99.90;;;;;;5053645;28;20041;-67
2024/03/09 08:26:38;;;;;;;42.67;25.00;;;5.60;99.90;;;;;;5053603;28;20031;-67
2024/03/09 08:29:04;;;;;;;43.58;23.85;;;5.70;99.90;;;;;;5053052;28;20037;-67
2024/03/09 08:31:31;;;;;;;42.60;23.45;;;5.80;99.90;;;;;;5052890;28;20045;-67
2024/03/09 08:33:57;;;;;;;45.15;24.15;;;5.70;99.90;;;;;;5050792;28;20037;-67
2024/03/09 08:36:23;;;;;;;41.40;24.38;;;5.90;99.90;;;;;;5053057;28;20120;-67
2024/03/09 08:38:54;;;;;;;42.15;24.67;;;5.90;99.90;;;;;;5052683;28;20048;-67
2024/03/09 08:41:23;;;;;;;42.13;24.38;;;5.80;99.90;;;;;;5052999;28;20040;-66
2024/03/09 08:43:48;;;;;;;40.30;23.52;;;5.90;99.90;;;;;;5053602;28;20067;-67
2024/03/09 08:46:14;;;;;;;40.95;23.42;;;6.00;99.90;;;;;;5044896;28;20036;-67
2024/03/09 08:48:40;;;;;;;42.88;23.73;;;6.00;99.90;;;;;;5043827;28;20068;-67
2024/03/09 08:51:07;;;;;;;41.38;24.40;;;6.10;99.90;;;;;;5045010;28;20064;-67
2024/03/09 08:53:35;;;;;;;40.17;24.83;;;6.10;99.90;;;;;;5050012;28;20413;-67
2024/03/09 08:56:02;;;;;;;41.08;22.77;;;6.10;99.90;;;;;;5044060;28;20029;-67
2024/03/09 08:58:27;;;;;;;41.90;22.75;;;6.20;99.90;;;;;;5041323;28;20033;-67
2024/03/09 09:00:53;;;;;;;49.67;24.95;;;6.20;99.90;;;;;;5037152;28;20078;-67
2024/03/09 09:03:20;;;;;;;45.00;24.13;;;6.10;99.90;;;;;;5052314;28;20033;-67
2024/03/09 09:05:46;;;;;;;45.85;24.23;;;6.20;99.90;;;;;;5053298;28;20134;-67
2024/03/09 09:08:17;;;;;;;40.80;24.10;;;6.00;99.90;;;;;;5053159;28;20080;-67
2024/03/09 09:10:43;;;;;;;40.17;24.27;;;6.00;99.90;;;;;;5052762;28;20056;-66
2024/03/09 09:13:08;;;;;;;42.10;22.77;;;6.10;99.90;;;;;;5050673;28;20044;-67
2024/03/09 09:15:34;;;;;;;41.40;23.35;;;6.20;99.90;;;;;;5052597;28;20037;-66
2024/03/09 09:18:00;;;;;;;44.83;24.88;;;6.30;99.90;;;;;;5052819;28;20120;-67
2024/03/09 09:20:27;;;;;;;40.35;23.13;;;6.20;99.90;;;;;;5052736;28;20040;-67
2024/03/09 09:22:55;;;;;;;45.63;23.80;;;6.20;99.90;;;;;;5051329;28;20087;-67
2024/03/09 09:25:25;;;;;;;40.20;24.95;;;6.10;99.90;;;;;;5052869;28;20048;-67
2024/03/09 09:27:53;;;;;;;44.28;24.38;;;6.10;99.90;;;;;;5052915;28;20041;-67
2024/03/09 09:30:19;;;;;;;39.50;23.17;;;6.10;99.90;;;;;;5052372;28;20036;-67
2024/03/09 09:32:44;;;;;;;34.72;21.55;;;6.10;99.90;;;;;;5052215;28;20408;-67
2024/03/09 09:35:11;;;;;;;44.50;24.10;;;6.10;99.90;;;;;;5052830;28;20032;-67
2024/03/09 09:37:37;;;;;;;41.17;23.40;;;6.20;99.90;;;;;;5052687;28;20460;-67
2024/03/09 09:40:04;;;;;;;36.88;21.50;;;6.20;99.90;;;;;;5052131;28;20087;-67
2024/03/09 09:42:33;;;;;;;44.47;23.25;;;6.30;99.90;;;;;;5052016;28;20044;-67
2024/03/09 09:44:59;;;;;;;38.25;23.70;;;6.20;99.90;;;;;;5052355;28;20043;-67
2024/03/09 09:47:25;;;;;;;39.60;23.55;;;6.20;99.90;;;;;;5052146;28;20040;-67
2024/03/09 09:49:53;;;;;;;39.65;22.85;;;6.20;99.90;;;;;;5051636;28;20037;-67
2024/03/09 09:52:26;;;;;;;44.15;24.70;;;6.30;99.90;;;;;;5051893;28;20040;-67
2024/03/09 09:54:55;;;;;;;40.33;23.33;;;6.30;99.90;;;;;;5052505;28;20044;-68
2024/03/09 09:57:21;;;;;;;39.60;24.67;;;6.30;99.90;;;;;;5052290;28;20507;-67
2024/03/09 09:59:47;;;;;;;37.55;22.90;;;6.30;99.90;;;;;;5051727;28;20064;-67
2024/03/09 10:02:16;;;;;;;38.63;24.10;;;6.30;99.90;;;;;;5051564;28;20037;-66
2024/03/09 10:04:43;;;;;;;42.22;24.67;;;6.40;99.90;;;;;;5052195;28;20045;-68
2024/03/09 10:07:09;;;;;;;43.10;25.10;;;6.40;99.90;;;;;;5052115;28;20040;-68
2024/03/09 10:09:35;;;;;;;41.55;23.15;;;6.50;99.90;;;;;;5051681;28;20565;-68
2024/03/09 10:12:00;;;;;;;41.90;25.45;;;6.50;99.90;;;;;;5051622;28;20036;-68
2024/03/09 10:14:29;;;;;;;41.03;24.73;;;6.60;99.90;;;;;;5050735;28;20432;-68
2024/03/09 10:17:01;;;;;;;38.38;23.08;;;6.70;99.90;;;;;;5052021;28;20044;-68
2024/03/09 10:19:26;;;;;;;43.72;22.92;;;6.70;99.90;;;;;;5051972;28;20040;-68
2024/03/09 10:21:52;;;;;;;39.40;21.08;;;6.70;99.90;;;;;;5050090;28;20037;-68
2024/03/09 10:24:18;;;;;;;37.53;22.70;;;6.90;99.90;;;;;;5051909;28;20045;-68
2024/03/09 10:26:45;;;;;;;36.20;21.80;;;7.00;99.90;;;;;;5050415;28;20169;-68
2024/03/09 10:29:13;;;;;;;38.00;21.77;;;7.00;99.90;;;;;;5050214;28;20044;-68
2024/03/09 10:31:42;;;;;;;37.55;22.77;;;7.10;99.90;;;;;;5051124;28;20520;-69
2024/03/09 10:34:09;;;;;;;41.33;22.75;;;7.10;99.90;;;;;;5050642;28;20116;-68
2024/03/09 10:36:36;;;;;;;37.55;23.13;;;7.10;99.90;;;;;;5051530;28;20037;-69
2024/03/09 10:39:02;;;;;;;36.85;22.65;;;7.20;99.90;;;;;;5051405;28;20041;-68
2024/03/09 10:41:28;;;;;;;41.30;24.33;;;7.20;99.90;;;;;;5049667;28;20082;-69
2024/03/09 10:43:55;;;;;;;35.80;22.70;;;7.20;99.90;;;;;;5051417;28;20539;-68
2024/03/09 10:46:28;;;;;;;33.90;20.58;;;7.20;99.90;;;;;;5051631;28;20041;-69
2024/03/09 10:48:56;;;;;;;40.05;23.98;;;7.30;99.90;;;;;;5051182;28;20516;-68
2024/03/09 10:51:51;;;;;;;36.45;22.58;;;7.30;99.90;;;;;;5050949;28;20041;-69
2024/03/09 10:54:36;;;;;;;35.97;20.77;;;7.40;99.90;;;;;;5051615;28;20448;-68
2024/03/09 10:57:03;;;;;;;41.08;23.88;;;7.50;99.90;;;;;;5050139;28;20045;-67
2024/03/09 10:59:30;;;;;;;36.83;22.55;;;7.50;99.90;;;;;;5051616;28;20040;-68
2024/03/09 11:01:56;;;;;;;34.53;21.27;;;7.50;99.90;;;;;;5053655;28;20501;-68
2024/03/09 11:04:25;;;;;;;42.92;22.80;;;7.50;99.90;;;;;;5055323;28;20037;-69
2024/03/09 11:06:51;;;;;;;38.10;22.48;;;7.50;99.90;;;;;;5055582;28;20086;-68
2024/03/09 11:09:29;;;;;;;39.35;22.88;;;7.60;99.90;;;;;;5055216;28;20420;-68
2024/03/09 11:12:01;;;;;;;36.00;21.58;;;7.60;99.90;;;;;;5054746;28;20471;-68
2024/03/09 11:14:27;;;;;;;38.15;21.60;;;7.70;99.90;;;;;;5055437;28;20067;-69
2024/03/09 11:16:53;;;;;;;34.50;20.73;;;7.70;99.90;;;;;;5055069;28;20497;-68
2024/03/09 11:19:26;;;;;;;35.33;20.90;;;7.70;99.90;;;;;;5055148;28;20119;-68
2024/03/09 11:21:52;;;;;;;41.00;21.45;;;7.90;99.90;;;;;;5054801;28;20083;-69
2024/03/09 11:24:19;;;;;;;36.90;20.70;;;7.90;99.90;;;;;;5053865;28;20124;-69
2024/03/09 11:26:53;;;;;;;33.30;21.80;;;7.90;99.90;;;;;;5055107;28;20467;-69
2024/03/09 11:29:27;;;;;;;34.25;20.52;;;8.00;99.90;;;;;;5053444;28;20045;-69
2024/03/09 11:32:06;;;;;;;37.28;20.75;;;7.90;99.90;;;;;;5054578;28;20043;-68
2024/03/09 11:34:31;;;;;;;34.95;20.90;;;8.00;99.90;;;;;;5054821;28;20043;-68
2024/03/09 11:37:01;;;;;;;34.70;20.55;;;8.30;99.90;;;;;;5054291;28;20041;-68
2024/03/09 11:39:29;;;;;;;32.47;19.02;;;8.50;99.90;;;;;;5054443;28;20044;-68
2024/03/09 11:41:57;;;;;;;34.17;19.77;;;8.50;99.90;;;;;;5054085;28;20036;-67
2024/03/09 11:44:33;;;;;;;34.50;19.52;;;8.60;99.90;;;;;;5054900;28;20099;-67
2024/03/09 11:47:00;;;;;;;33.30;19.02;;;8.60;99.90;;;;;;5054752;28;20069;-67
2024/03/09 11:49:27;;;;;;;31.40;18.55;;;8.70;99.90;;;;;;5054891;28;20080;-68
2024/03/09 11:51:55;;;;;;;32.08;19.40;;;8.70;99.90;;;;;;5054180;28;20069;-68
2024/03/09 11:54:20;;;;;;;29.30;17.85;;;8.80;99.90;;;;;;5054463;28;20040;-67
2024/03/09 11:56:46;;;;;;;31.27;19.20;;;8.80;99.90;;;;;;5053160;28;20041;-68
2024/03/09 11:59:12;;;;;;;31.58;19.60;;;8.80;99.90;;;;;;5054328;28;20053;-68
2024/03/09 12:01:42;;;;;;;28.20;18.23;;;9.00;99.90;;;;;;5054052;28;20455;-68
2024/03/09 12:04:10;;;;;;;29.35;18.58;;;9.00;99.90;;;;;;5054441;28;20512;-68
2024/03/09 12:06:40;;;;;;;35.72;19.95;;;9.00;99.90;;;;;;5054255;28;20051;-68
2024/03/09 12:09:07;;;;;;;29.15;17.98;;;9.00;99.90;;;;;;5054017;28;20079;-67
2024/03/09 12:11:34;;;;;;;30.67;19.10;;;9.10;99.90;;;;;;5051258;28;20500;-68
2024/03/09 12:14:01;;;;;;;31.05;19.83;;;9.10;99.90;;;;;;5053955;28;20435;-68
2024/03/09 12:16:28;;;;;;;30.40;19.02;;;9.10;99.90;;;;;;5053628;28;20079;-68
2024/03/09 12:18:56;;;;;;;31.67;19.63;;;9.10;99.90;;;;;;5053537;28;20044;-68
2024/03/09 12:21:25;;;;;;;31.60;19.55;;;9.20;99.90;;;;;;5053527;28;20476;-68
2024/03/09 12:23:52;;;;;;;27.30;17.73;;;9.20;99.90;;;;;;5054288;28;20047;-68
2024/03/09 12:26:23;;;;;;;28.95;18.83;;;9.10;99.90;;;;;;5053645;28;20443;-69
2024/03/09 12:28:49;;;;;;;26.15;17.17;;;9.20;99.90;;;;;;5051408;28;20564;-68
2024/03/09 12:31:15;;;;;;;31.13;18.05;;;9.30;99.90;;;;;;5052490;28;20029;-68
2024/03/09 12:33:43;;;;;;;31.63;17.48;;;9.40;99.90;;;;;;5053389;28;20029;-67
2024/03/09 12:36:10;;;;;;;29.17;17.90;;;9.40;99.90;;;;;;5053663;28;20072;-68
2024/03/09 12:38:37;;;;;;;26.52;17.65;;;9.60;99.90;;;;;;5053570;28;20113;-67
2024/03/09 12:41:06;;;;;;;28.50;16.63;;;9.60;99.90;;;;;;5053892;28;20077;-68